Terminal Aerodrome Forecast
Issued by NWS

Home | Current Version | Previous Version | Text Only | Print | Product List | Glossary On
Versions: 1 2 3 4 5 6 7 8 9 10 11 12 13 14 15 16
359
FTUS46 KSGX 081130
TAFCRQ
TAF
KCRQ 081130Z 0812/0912 VRB03KT P6SM SCT200
     FM081900 25008KT P6SM SCT150
     FM090100 VRB03KT P6SM FEW018 FEW100
     FM090400 VRB03KT P6SM BKN012=

USA.gov is the U.S. government's official web portal to all federal, state and local government web resources and services.